sensor_id;sensor_type;location;lat;lon;timestamp;temperature;humidity
17331;DHT22;8783;52.448;4.638;2023-07-13T00:02:15;23.20;99.90
17331;DHT22;8783;52.448;4.638;2023-07-13T00:04:41;23.20;99.90
17331;DHT22;8783;52.448;4.638;2023-07-13T00:07:08;23.20;99.90
17331;DHT22;8783;52.448;4.638;2023-07-13T00:09:34;23.20;99.90
17331;DHT22;8783;52.448;4.638;2023-07-13T00:12:00;23.20;99.90
17331;DHT22;8783;52.448;4.638;2023-07-13T00:14:27;23.20;99.90
17331;DHT22;8783;52.448;4.638;2023-07-13T00:16:53;23.20;99.90
17331;DHT22;8783;52.448;4.638;2023-07-13T00:19:19;23.20;99.90
17331;DHT22;8783;52.448;4.638;2023-07-13T00:21:44;23.20;99.90
17331;DHT22;8783;52.448;4.638;2023-07-13T00:24:12;23.20;99.90
17331;DHT22;8783;52.448;4.638;2023-07-13T00:26:39;23.20;99.90
17331;DHT22;8783;52.448;4.638;2023-07-13T00:29:05;23.20;99.90
17331;DHT22;8783;52.448;4.638;2023-07-13T00:31:35;23.20;99.90
17331;DHT22;8783;52.448;4.638;2023-07-13T00:34:01;23.20;99.90
17331;DHT22;8783;52.448;4.638;2023-07-13T00:36:27;23.10;99.90
17331;DHT22;8783;52.448;4.638;2023-07-13T00:38:53;23.20;99.90
17331;DHT22;8783;52.448;4.638;2023-07-13T00:41:19;23.10;99.90
17331;DHT22;8783;52.448;4.638;2023-07-13T00:43:45;23.10;99.90
17331;DHT22;8783;52.448;4.638;2023-07-13T00:48:45;23.10;99.90
17331;DHT22;8783;52.448;4.638;2023-07-13T00:51:12;23.10;99.90
17331;DHT22;8783;52.448;4.638;2023-07-13T00:53:39;23.10;99.90
17331;DHT22;8783;52.448;4.638;2023-07-13T00:56:06;23.10;99.90
17331;DHT22;8783;52.448;4.638;2023-07-13T00:58:32;23.10;99.90
17331;DHT22;8783;52.448;4.638;2023-07-13T01:00:58;23.10;99.90
17331;DHT22;8783;52.448;4.638;2023-07-13T01:03:24;23.10;99.90
17331;DHT22;8783;52.448;4.638;2023-07-13T01:05:50;23.10;99.90
17331;DHT22;8783;52.448;4.638;2023-07-13T01:08:17;23.10;99.90
17331;DHT22;8783;52.448;4.638;2023-07-13T01:10:56;23.00;99.90
17331;DHT22;8783;52.448;4.638;2023-07-13T01:13:22;23.00;99.90
17331;DHT22;8783;52.448;4.638;2023-07-13T01:15:50;23.10;99.90
17331;DHT22;8783;52.448;4.638;2023-07-13T01:18:25;23.10;99.90
17331;DHT22;8783;52.448;4.638;2023-07-13T01:20:55;23.00;99.90
17331;DHT22;8783;52.448;4.638;2023-07-13T01:23:22;23.00;99.90
17331;DHT22;8783;52.448;4.638;2023-07-13T01:25:48;23.00;99.90
17331;DHT22;8783;52.448;4.638;2023-07-13T01:28:13;23.00;99.90
17331;DHT22;8783;52.448;4.638;2023-07-13T01:30:40;23.00;99.90
17331;DHT22;8783;52.448;4.638;2023-07-13T01:33:07;23.00;99.90
17331;DHT22;8783;52.448;4.638;2023-07-13T01:35:33;23.00;99.90
17331;DHT22;8783;52.448;4.638;2023-07-13T01:37:59;23.00;99.90
17331;DHT22;8783;52.448;4.638;2023-07-13T01:40:27;23.00;99.90
17331;DHT22;8783;52.448;4.638;2023-07-13T01:42:53;23.00;99.90
17331;DHT22;8783;52.448;4.638;2023-07-13T01:45:18;23.00;99.90
17331;DHT22;8783;52.448;4.638;2023-07-13T01:47:44;23.00;99.90
17331;DHT22;8783;52.448;4.638;2023-07-13T01:50:10;23.00;99.90
17331;DHT22;8783;52.448;4.638;2023-07-13T01:52:36;23.00;99.90
17331;DHT22;8783;52.448;4.638;2023-07-13T01:55:02;23.00;99.90
17331;DHT22;8783;52.448;4.638;2023-07-13T01:57:27;23.00;99.90
17331;DHT22;8783;52.448;4.638;2023-07-13T01:59:53;23.00;99.90
17331;DHT22;8783;52.448;4.638;2023-07-13T02:02:19;23.00;99.90
17331;DHT22;8783;52.448;4.638;2023-07-13T02:04:45;22.90;99.90
17331;DHT22;8783;52.448;4.638;2023-07-13T02:07:11;22.90;99.90
17331;DHT22;8783;52.448;4.638;2023-07-13T02:09:37;22.90;99.90
17331;DHT22;8783;52.448;4.638;2023-07-13T02:12:03;22.90;99.90
17331;DHT22;8783;52.448;4.638;2023-07-13T02:14:28;22.90;99.90
17331;DHT22;8783;52.448;4.638;2023-07-13T02:16:54;22.90;99.90
17331;DHT22;8783;52.448;4.638;2023-07-13T02:19:20;22.90;99.90
17331;DHT22;8783;52.448;4.638;2023-07-13T02:21:46;22.90;99.90
17331;DHT22;8783;52.448;4.638;2023-07-13T02:24:11;22.90;99.90
17331;DHT22;8783;52.448;4.638;2023-07-13T02:26:43;22.90;99.90
17331;DHT22;8783;52.448;4.638;2023-07-13T02:29:09;22.90;99.90
17331;DHT22;8783;52.448;4.638;2023-07-13T02:31:35;22.90;99.90
17331;DHT22;8783;52.448;4.638;2023-07-13T02:34:01;22.90;99.90
17331;DHT22;8783;52.448;4.638;2023-07-13T02:36:28;22.90;99.90
17331;DHT22;8783;52.448;4.638;2023-07-13T02:38:54;22.90;99.90
17331;DHT22;8783;52.448;4.638;2023-07-13T02:41:20;22.90;99.90
17331;DHT22;8783;52.448;4.638;2023-07-13T02:43:45;22.90;99.90
17331;DHT22;8783;52.448;4.638;2023-07-13T02:46:11;22.90;99.90
17331;DHT22;8783;52.448;4.638;2023-07-13T02:48:38;22.90;99.90
17331;DHT22;8783;52.448;4.638;2023-07-13T02:51:05;22.90;99.90
17331;DHT22;8783;52.448;4.638;2023-07-13T02:53:31;22.90;99.90
17331;DHT22;8783;52.448;4.638;2023-07-13T02:55:57;22.90;99.90
17331;DHT22;8783;52.448;4.638;2023-07-13T02:58:23;22.80;99.90
17331;DHT22;8783;52.448;4.638;2023-07-13T03:00:49;22.80;99.90
17331;DHT22;8783;52.448;4.638;2023-07-13T03:03:16;22.80;99.90
17331;DHT22;8783;52.448;4.638;2023-07-13T03:05:43;22.80;99.90
17331;DHT22;8783;52.448;4.638;2023-07-13T03:08:11;22.80;99.90
17331;DHT22;8783;52.448;4.638;2023-07-13T03:10:37;22.80;99.90
17331;DHT22;8783;52.448;4.638;2023-07-13T03:13:05;22.80;99.90
17331;DHT22;8783;52.448;4.638;2023-07-13T03:15:30;22.80;99.90
17331;DHT22;8783;52.448;4.638;2023-07-13T03:17:56;22.80;99.90
17331;DHT22;8783;52.448;4.638;2023-07-13T03:20:22;22.80;99.90
17331;DHT22;8783;52.448;4.638;2023-07-13T03:22:48;22.80;99.90
17331;DHT22;8783;52.448;4.638;2023-07-13T03:25:13;22.80;99.90
17331;DHT22;8783;52.448;4.638;2023-07-13T03:27:39;22.80;99.90
17331;DHT22;8783;52.448;4.638;2023-07-13T03:30:05;22.80;99.90
17331;DHT22;8783;52.448;4.638;2023-07-13T03:32:32;22.80;99.90
17331;DHT22;8783;52.448;4.638;2023-07-13T03:34:57;22.80;99.90
17331;DHT22;8783;52.448;4.638;2023-07-13T03:37:23;22.80;99.90
17331;DHT22;8783;52.448;4.638;2023-07-13T03:39:49;22.80;99.90
17331;DHT22;8783;52.448;4.638;2023-07-13T03:42:15;22.80;99.90
17331;DHT22;8783;52.448;4.638;2023-07-13T03:44:42;22.80;99.90
17331;DHT22;8783;52.448;4.638;2023-07-13T03:47:11;22.80;99.90
17331;DHT22;8783;52.448;4.638;2023-07-13T03:49:37;22.80;99.90
17331;DHT22;8783;52.448;4.638;2023-07-13T03:52:04;22.80;99.90
17331;DHT22;8783;52.448;4.638;2023-07-13T03:54:30;22.80;99.90
17331;DHT22;8783;52.448;4.638;2023-07-13T03:56:56;22.80;99.90
17331;DHT22;8783;52.448;4.638;2023-07-13T03:59:22;22.80;99.90
17331;DHT22;8783;52.448;4.638;2023-07-13T04:01:47;22.80;99.90
17331;DHT22;8783;52.448;4.638;2023-07-13T04:04:13;22.80;99.90
17331;DHT22;8783;52.448;4.638;2023-07-13T04:06:39;22.80;99.90
17331;DHT22;8783;52.448;4.638;2023-07-13T04:09:05;22.80;99.90
17331;DHT22;8783;52.448;4.638;2023-07-13T04:11:34;22.80;99.90
17331;DHT22;8783;52.448;4.638;2023-07-13T04:14:02;22.80;99.90
17331;DHT22;8783;52.448;4.638;2023-07-13T04:16:28;22.80;99.90
17331;DHT22;8783;52.448;4.638;2023-07-13T04:18:55;22.80;99.90
17331;DHT22;8783;52.448;4.638;2023-07-13T04:21:25;22.80;99.90
17331;DHT22;8783;52.448;4.638;2023-07-13T04:23:51;22.70;99.90
17331;DHT22;8783;52.448;4.638;2023-07-13T04:26:17;22.80;99.90
17331;DHT22;8783;52.448;4.638;2023-07-13T04:28:44;22.80;99.90
17331;DHT22;8783;52.448;4.638;2023-07-13T04:31:10;22.80;99.90
17331;DHT22;8783;52.448;4.638;2023-07-13T04:33:36;22.80;99.90
17331;DHT22;8783;52.448;4.638;2023-07-13T04:36:01;22.70;99.90
17331;DHT22;8783;52.448;4.638;2023-07-13T04:38:29;22.80;99.90
17331;DHT22;8783;52.448;4.638;2023-07-13T04:40:57;22.80;99.90
17331;DHT22;8783;52.448;4.638;2023-07-13T04:43:24;22.70;99.90
17331;DHT22;8783;52.448;4.638;2023-07-13T04:45:51;22.70;99.90
17331;DHT22;8783;52.448;4.638;2023-07-13T04:48:17;22.70;99.90
17331;DHT22;8783;52.448;4.638;2023-07-13T04:50:43;22.80;99.90
17331;DHT22;8783;52.448;4.638;2023-07-13T04:53:09;22.80;99.90
17331;DHT22;8783;52.448;4.638;2023-07-13T04:55:36;22.80;99.90
17331;DHT22;8783;52.448;4.638;2023-07-13T04:58:02;22.70;99.90
17331;DHT22;8783;52.448;4.638;2023-07-13T05:00:29;22.70;99.90
17331;DHT22;8783;52.448;4.638;2023-07-13T05:02:56;22.70;99.90
17331;DHT22;8783;52.448;4.638;2023-07-13T05:05:23;22.70;99.90
17331;DHT22;8783;52.448;4.638;2023-07-13T05:07:49;22.70;99.90
17331;DHT22;8783;52.448;4.638;2023-07-13T05:10:15;22.70;99.90
17331;DHT22;8783;52.448;4.638;2023-07-13T05:12:41;22.70;99.90
17331;DHT22;8783;52.448;4.638;2023-07-13T05:15:07;22.70;99.90
17331;DHT22;8783;52.448;4.638;2023-07-13T05:17:33;22.70;99.90
17331;DHT22;8783;52.448;4.638;2023-07-13T05:19:59;22.70;99.90
17331;DHT22;8783;52.448;4.638;2023-07-13T05:22:24;22.70;99.90
17331;DHT22;8783;52.448;4.638;2023-07-13T05:24:50;22.70;99.90
17331;DHT22;8783;52.448;4.638;2023-07-13T05:27:16;22.70;99.90
17331;DHT22;8783;52.448;4.638;2023-07-13T05:29:42;22.70;99.90
17331;DHT22;8783;52.448;4.638;2023-07-13T05:32:07;22.70;99.90
17331;DHT22;8783;52.448;4.638;2023-07-13T05:34:33;22.60;99.90
17331;DHT22;8783;52.448;4.638;2023-07-13T05:36:59;22.70;99.90
17331;DHT22;8783;52.448;4.638;2023-07-13T05:39:25;22.70;99.90
17331;DHT22;8783;52.448;4.638;2023-07-13T05:41:51;22.70;99.90
17331;DHT22;8783;52.448;4.638;2023-07-13T05:44:17;22.70;99.90
17331;DHT22;8783;52.448;4.638;2023-07-13T05:46:44;22.60;99.90
17331;DHT22;8783;52.448;4.638;2023-07-13T05:49:09;22.70;99.90
17331;DHT22;8783;52.448;4.638;2023-07-13T05:51:35;22.70;99.90
17331;DHT22;8783;52.448;4.638;2023-07-13T05:54:01;22.70;99.90
17331;DHT22;8783;52.448;4.638;2023-07-13T05:56:27;22.70;99.90
17331;DHT22;8783;52.448;4.638;2023-07-13T05:58:52;22.70;99.90
17331;DHT22;8783;52.448;4.638;2023-07-13T06:01:18;22.70;99.90
17331;DHT22;8783;52.448;4.638;2023-07-13T06:03:46;22.60;99.90
17331;DHT22;8783;52.448;4.638;2023-07-13T06:06:13;22.70;99.90
17331;DHT22;8783;52.448;4.638;2023-07-13T06:08:39;22.70;99.90
17331;DHT22;8783;52.448;4.638;2023-07-13T06:11:06;22.60;99.90
17331;DHT22;8783;52.448;4.638;2023-07-13T06:13:32;22.60;99.90
17331;DHT22;8783;52.448;4.638;2023-07-13T06:15:59;22.60;99.90
17331;DHT22;8783;52.448;4.638;2023-07-13T06:18:24;22.60;99.90
17331;DHT22;8783;52.448;4.638;2023-07-13T06:20:50;22.60;99.90
17331;DHT22;8783;52.448;4.638;2023-07-13T06:23:16;22.60;99.90
17331;DHT22;8783;52.448;4.638;2023-07-13T06:25:43;22.60;99.90
17331;DHT22;8783;52.448;4.638;2023-07-13T06:28:09;22.60;99.90
17331;DHT22;8783;52.448;4.638;2023-07-13T06:30:34;22.60;99.90
17331;DHT22;8783;52.448;4.638;2023-07-13T06:33:00;22.50;99.90
17331;DHT22;8783;52.448;4.638;2023-07-13T06:35:26;22.50;99.90
17331;DHT22;8783;52.448;4.638;2023-07-13T06:37:51;22.60;99.90
17331;DHT22;8783;52.448;4.638;2023-07-13T06:40:17;22.50;99.90
17331;DHT22;8783;52.448;4.638;2023-07-13T06:42:43;22.60;99.90
17331;DHT22;8783;52.448;4.638;2023-07-13T06:45:09;22.60;99.90
17331;DHT22;8783;52.448;4.638;2023-07-13T06:47:35;22.60;99.90
17331;DHT22;8783;52.448;4.638;2023-07-13T06:50:01;22.70;99.90
17331;DHT22;8783;52.448;4.638;2023-07-13T06:52:26;22.70;99.90
17331;DHT22;8783;52.448;4.638;2023-07-13T06:54:52;22.70;99.90
17331;DHT22;8783;52.448;4.638;2023-07-13T06:57:18;22.80;99.90
17331;DHT22;8783;52.448;4.638;2023-07-13T06:59:43;22.80;99.90
17331;DHT22;8783;52.448;4.638;2023-07-13T07:02:10;22.80;99.90
17331;DHT22;8783;52.448;4.638;2023-07-13T07:04:37;22.80;99.90
17331;DHT22;8783;52.448;4.638;2023-07-13T07:07:03;22.80;99.90
17331;DHT22;8783;52.448;4.638;2023-07-13T07:09:28;22.90;99.90
17331;DHT22;8783;52.448;4.638;2023-07-13T07:11:56;22.90;99.90
17331;DHT22;8783;52.448;4.638;2023-07-13T07:14:21;22.90;99.90
17331;DHT22;8783;52.448;4.638;2023-07-13T07:16:47;22.90;99.90
17331;DHT22;8783;52.448;4.638;2023-07-13T07:19:13;22.90;99.90
17331;DHT22;8783;52.448;4.638;2023-07-13T07:21:39;23.00;99.90
17331;DHT22;8783;52.448;4.638;2023-07-13T07:24:05;23.00;99.90
17331;DHT22;8783;52.448;4.638;2023-07-13T07:26:31;23.00;99.90
17331;DHT22;8783;52.448;4.638;2023-07-13T07:28:57;23.00;99.90
17331;DHT22;8783;52.448;4.638;2023-07-13T07:31:22;23.00;99.90
17331;DHT22;8783;52.448;4.638;2023-07-13T07:33:48;23.00;99.90
17331;DHT22;8783;52.448;4.638;2023-07-13T07:36:15;23.10;99.90
17331;DHT22;8783;52.448;4.638;2023-07-13T07:38:42;23.10;99.90
17331;DHT22;8783;52.448;4.638;2023-07-13T07:41:07;23.10;99.90
17331;DHT22;8783;52.448;4.638;2023-07-13T07:43:33;23.20;99.90
17331;DHT22;8783;52.448;4.638;2023-07-13T07:45:59;23.20;99.90
17331;DHT22;8783;52.448;4.638;2023-07-13T07:48:25;23.20;99.90
17331;DHT22;8783;52.448;4.638;2023-07-13T07:50:51;23.20;99.90
17331;DHT22;8783;52.448;4.638;2023-07-13T07:53:16;23.20;99.90
17331;DHT22;8783;52.448;4.638;2023-07-13T07:55:42;23.20;99.90
17331;DHT22;8783;52.448;4.638;2023-07-13T07:58:10;23.20;99.90
17331;DHT22;8783;52.448;4.638;2023-07-13T08:00:36;23.20;99.90
17331;DHT22;8783;52.448;4.638;2023-07-13T08:03:01;23.30;99.90
17331;DHT22;8783;52.448;4.638;2023-07-13T08:05:28;23.30;99.90
17331;DHT22;8783;52.448;4.638;2023-07-13T08:07:53;23.30;99.90
17331;DHT22;8783;52.448;4.638;2023-07-13T08:10:20;23.30;99.90
17331;DHT22;8783;52.448;4.638;2023-07-13T08:12:45;23.40;99.90
17331;DHT22;8783;52.448;4.638;2023-07-13T08:15:13;23.40;99.90
17331;DHT22;8783;52.448;4.638;2023-07-13T08:17:39;23.40;99.90
17331;DHT22;8783;52.448;4.638;2023-07-13T08:20:06;23.40;99.90
17331;DHT22;8783;52.448;4.638;2023-07-13T08:22:32;23.40;99.90
17331;DHT22;8783;52.448;4.638;2023-07-13T08:24:59;23.40;99.90
17331;DHT22;8783;52.448;4.638;2023-07-13T08:27:26;23.40;99.90
17331;DHT22;8783;52.448;4.638;2023-07-13T08:29:53;23.50;99.90
17331;DHT22;8783;52.448;4.638;2023-07-13T08:32:20;23.50;99.90
17331;DHT22;8783;52.448;4.638;2023-07-13T08:34:47;23.50;99.90
17331;DHT22;8783;52.448;4.638;2023-07-13T08:37:13;23.50;99.90
17331;DHT22;8783;52.448;4.638;2023-07-13T08:39:39;23.60;99.90
17331;DHT22;8783;52.448;4.638;2023-07-13T08:42:53;23.50;99.90
17331;DHT22;8783;52.448;4.638;2023-07-13T08:45:22;23.50;99.90
17331;DHT22;8783;52.448;4.638;2023-07-13T08:47:54;23.50;99.90
17331;DHT22;8783;52.448;4.638;2023-07-13T08:50:27;23.40;99.90
17331;DHT22;8783;52.448;4.638;2023-07-13T08:52:55;23.40;99.90
17331;DHT22;8783;52.448;4.638;2023-07-13T08:55:26;23.40;99.90
17331;DHT22;8783;52.448;4.638;2023-07-13T08:58:20;23.40;99.90
17331;DHT22;8783;52.448;4.638;2023-07-13T09:03:57;23.50;99.90
17331;DHT22;8783;52.448;4.638;2023-07-13T09:10:21;23.50;99.90
17331;DHT22;8783;52.448;4.638;2023-07-13T09:15:35;23.50;99.90
17331;DHT22;8783;52.448;4.638;2023-07-13T09:21:18;23.40;99.90
17331;DHT22;8783;52.448;4.638;2023-07-13T09:23:47;23.50;99.90
17331;DHT22;8783;52.448;4.638;2023-07-13T09:26:21;23.40;99.90
17331;DHT22;8783;52.448;4.638;2023-07-13T09:28:59;23.50;99.90
17331;DHT22;8783;52.448;4.638;2023-07-13T09:31:33;23.50;99.90
17331;DHT22;8783;52.448;4.638;2023-07-13T09:34:00;23.50;99.90
17331;DHT22;8783;52.448;4.638;2023-07-13T09:36:31;23.40;99.90
17331;DHT22;8783;52.448;4.638;2023-07-13T09:41:51;23.50;99.90
17331;DHT22;8783;52.448;4.638;2023-07-13T09:44:34;23.50;99.90
17331;DHT22;8783;52.448;4.638;2023-07-13T09:47:00;23.50;99.90
17331;DHT22;8783;52.448;4.638;2023-07-13T09:49:32;23.50;99.90
17331;DHT22;8783;52.448;4.638;2023-07-13T09:52:02;23.50;99.90
17331;DHT22;8783;52.448;4.638;2023-07-13T09:54:28;23.50;99.90
17331;DHT22;8783;52.448;4.638;2023-07-13T09:56:58;23.50;99.90
17331;DHT22;8783;52.448;4.638;2023-07-13T09:59:29;23.40;99.90
17331;DHT22;8783;52.448;4.638;2023-07-13T10:01:55;23.40;99.90
17331;DHT22;8783;52.448;4.638;2023-07-13T10:04:33;23.40;99.90
17331;DHT22;8783;52.448;4.638;2023-07-13T10:07:07;23.40;99.90
17331;DHT22;8783;52.448;4.638;2023-07-13T10:09:33;23.40;99.90
17331;DHT22;8783;52.448;4.638;2023-07-13T10:11:59;23.40;99.90
17331;DHT22;8783;52.448;4.638;2023-07-13T10:14:25;23.40;99.90
17331;DHT22;8783;52.448;4.638;2023-07-13T10:16:58;23.40;99.90
17331;DHT22;8783;52.448;4.638;2023-07-13T10:19:27;23.50;99.90
17331;DHT22;8783;52.448;4.638;2023-07-13T10:22:01;23.50;99.90
17331;DHT22;8783;52.448;4.638;2023-07-13T10:24:33;23.50;99.90
17331;DHT22;8783;52.448;4.638;2023-07-13T10:29:50;23.50;99.90
17331;DHT22;8783;52.448;4.638;2023-07-13T10:32:19;23.40;99.90
17331;DHT22;8783;52.448;4.638;2023-07-13T10:34:48;23.40;99.90
17331;DHT22;8783;52.448;4.638;2023-07-13T10:37:27;23.40;99.90
17331;DHT22;8783;52.448;4.638;2023-07-13T10:39:57;23.40;99.90
17331;DHT22;8783;52.448;4.638;2023-07-13T10:42:38;23.40;99.90
17331;DHT22;8783;52.448;4.638;2023-07-13T10:45:14;23.40;99.90
17331;DHT22;8783;52.448;4.638;2023-07-13T10:47:40;23.30;99.90
17331;DHT22;8783;52.448;4.638;2023-07-13T10:50:11;23.30;99.90
17331;DHT22;8783;52.448;4.638;2023-07-13T10:52:52;23.30;99.90
17331;DHT22;8783;52.448;4.638;2023-07-13T10:58:03;23.30;99.90
17331;DHT22;8783;52.448;4.638;2023-07-13T11:00:44;23.30;99.90
17331;DHT22;8783;52.448;4.638;2023-07-13T11:03:14;23.40;99.90
17331;DHT22;8783;52.448;4.638;2023-07-13T11:05:42;23.40;99.90
17331;DHT22;8783;52.448;4.638;2023-07-13T11:08:20;23.40;99.90
17331;DHT22;8783;52.448;4.638;2023-07-13T11:10:52;23.40;99.90
17331;DHT22;8783;52.448;4.638;2023-07-13T11:18:51;23.40;99.90
17331;DHT22;8783;52.448;4.638;2023-07-13T11:21:22;23.50;99.90
17331;DHT22;8783;52.448;4.638;2023-07-13T11:24:03;23.50;99.90
17331;DHT22;8783;52.448;4.638;2023-07-13T11:26:52;23.50;99.90
17331;DHT22;8783;52.448;4.638;2023-07-13T11:29:24;23.40;99.90
17331;DHT22;8783;52.448;4.638;2023-07-13T11:31:56;23.40;99.90
17331;DHT22;8783;52.448;4.638;2023-07-13T11:34:38;23.40;99.90
17331;DHT22;8783;52.448;4.638;2023-07-13T11:37:11;23.40;99.90
17331;DHT22;8783;52.448;4.638;2023-07-13T11:39:41;23.40;99.90
17331;DHT22;8783;52.448;4.638;2023-07-13T11:42:12;23.40;99.90
17331;DHT22;8783;52.448;4.638;2023-07-13T11:44:46;23.40;99.90
17331;DHT22;8783;52.448;4.638;2023-07-13T11:47:18;23.30;99.90
17331;DHT22;8783;52.448;4.638;2023-07-13T11:49:49;23.30;99.90
17331;DHT22;8783;52.448;4.638;2023-07-13T11:52:33;23.30;99.90
17331;DHT22;8783;52.448;4.638;2023-07-13T11:55:03;23.30;99.90
17331;DHT22;8783;52.448;4.638;2023-07-13T11:57:49;23.30;99.90
17331;DHT22;8783;52.448;4.638;2023-07-13T12:00:19;23.30;99.90
17331;DHT22;8783;52.448;4.638;2023-07-13T12:02:49;23.30;99.90
17331;DHT22;8783;52.448;4.638;2023-07-13T12:05:16;23.30;99.90
17331;DHT22;8783;52.448;4.638;2023-07-13T12:07:49;23.30;99.90
17331;DHT22;8783;52.448;4.638;2023-07-13T12:12:58;23.30;99.90
17331;DHT22;8783;52.448;4.638;2023-07-13T12:15:47;23.20;99.90
17331;DHT22;8783;52.448;4.638;2023-07-13T12:18:30;23.30;99.90
17331;DHT22;8783;52.448;4.638;2023-07-13T12:20:58;23.20;99.90
17331;DHT22;8783;52.448;4.638;2023-07-13T12:23:29;23.20;99.90
17331;DHT22;8783;52.448;4.638;2023-07-13T12:25:57;23.30;99.90
17331;DHT22;8783;52.448;4.638;2023-07-13T12:28:35;23.30;99.90
17331;DHT22;8783;52.448;4.638;2023-07-13T12:31:04;23.30;99.90
17331;DHT22;8783;52.448;4.638;2023-07-13T12:33:33;23.30;99.90
17331;DHT22;8783;52.448;4.638;2023-07-13T12:36:03;23.20;99.90
17331;DHT22;8783;52.448;4.638;2023-07-13T12:38:31;23.30;99.90
17331;DHT22;8783;52.448;4.638;2023-07-13T12:40:57;23.20;99.90
17331;DHT22;8783;52.448;4.638;2023-07-13T12:43:24;23.20;99.90
17331;DHT22;8783;52.448;4.638;2023-07-13T12:46:02;23.20;99.90
17331;DHT22;8783;52.448;4.638;2023-07-13T12:48:28;23.20;99.90
17331;DHT22;8783;52.448;4.638;2023-07-13T12:50:55;23.20;99.90
17331;DHT22;8783;52.448;4.638;2023-07-13T12:53:27;23.20;99.90
17331;DHT22;8783;52.448;4.638;2023-07-13T12:55:56;23.20;99.90
17331;DHT22;8783;52.448;4.638;2023-07-13T12:58:37;23.30;99.90
17331;DHT22;8783;52.448;4.638;2023-07-13T13:01:04;23.30;99.90
17331;DHT22;8783;52.448;4.638;2023-07-13T13:03:50;23.20;99.90
17331;DHT22;8783;52.448;4.638;2023-07-13T13:06:24;23.20;99.90
17331;DHT22;8783;52.448;4.638;2023-07-13T13:08:52;23.20;99.90
17331;DHT22;8783;52.448;4.638;2023-07-13T13:11:19;23.20;99.90
17331;DHT22;8783;52.448;4.638;2023-07-13T13:13:46;23.20;99.90
17331;DHT22;8783;52.448;4.638;2023-07-13T13:16:24;23.20;99.90
17331;DHT22;8783;52.448;4.638;2023-07-13T13:19:00;23.20;99.90
17331;DHT22;8783;52.448;4.638;2023-07-13T13:21:28;23.20;99.90
17331;DHT22;8783;52.448;4.638;2023-07-13T13:23:53;23.20;99.90
17331;DHT22;8783;52.448;4.638;2023-07-13T13:26:21;23.30;99.90
17331;DHT22;8783;52.448;4.638;2023-07-13T13:28:47;23.30;99.90
17331;DHT22;8783;52.448;4.638;2023-07-13T13:31:14;23.30;99.90
17331;DHT22;8783;52.448;4.638;2023-07-13T13:33:45;23.20;99.90
17331;DHT22;8783;52.448;4.638;2023-07-13T13:38:41;23.20;99.90
17331;DHT22;8783;52.448;4.638;2023-07-13T13:41:10;23.20;99.90
17331;DHT22;8783;52.448;4.638;2023-07-13T13:43:36;23.30;99.90
17331;DHT22;8783;52.448;4.638;2023-07-13T13:46:01;23.30;99.90
17331;DHT22;8783;52.448;4.638;2023-07-13T13:48:32;23.30;99.90
17331;DHT22;8783;52.448;4.638;2023-07-13T13:51:00;23.30;99.90
17331;DHT22;8783;52.448;4.638;2023-07-13T13:53:27;23.30;99.90
17331;DHT22;8783;52.448;4.638;2023-07-13T13:55:53;23.30;99.90
17331;DHT22;8783;52.448;4.638;2023-07-13T13:58:20;23.30;99.90
17331;DHT22;8783;52.448;4.638;2023-07-13T14:00:47;23.30;99.90
17331;DHT22;8783;52.448;4.638;2023-07-13T14:03:18;23.30;99.90
17331;DHT22;8783;52.448;4.638;2023-07-13T14:05:46;23.30;99.90
17331;DHT22;8783;52.448;4.638;2023-07-13T14:08:17;23.30;99.90
17331;DHT22;8783;52.448;4.638;2023-07-13T14:10:45;23.30;99.90
17331;DHT22;8783;52.448;4.638;2023-07-13T14:13:20;23.30;99.90
17331;DHT22;8783;52.448;4.638;2023-07-13T14:15:47;23.30;99.90
17331;DHT22;8783;52.448;4.638;2023-07-13T14:18:13;23.30;99.90
17331;DHT22;8783;52.448;4.638;2023-07-13T14:20:44;23.30;99.90
17331;DHT22;8783;52.448;4.638;2023-07-13T14:23:12;23.40;99.90
17331;DHT22;8783;52.448;4.638;2023-07-13T14:25:38;23.30;99.90
17331;DHT22;8783;52.448;4.638;2023-07-13T14:28:22;23.30;99.90
17331;DHT22;8783;52.448;4.638;2023-07-13T14:30:49;23.30;99.90
17331;DHT22;8783;52.448;4.638;2023-07-13T14:33:15;23.30;99.90
17331;DHT22;8783;52.448;4.638;2023-07-13T14:35:40;23.30;99.90
17331;DHT22;8783;52.448;4.638;2023-07-13T14:38:11;23.30;99.90
17331;DHT22;8783;52.448;4.638;2023-07-13T14:40:37;23.30;99.90
17331;DHT22;8783;52.448;4.638;2023-07-13T14:43:03;23.30;99.90
17331;DHT22;8783;52.448;4.638;2023-07-13T14:45:30;23.30;99.90
17331;DHT22;8783;52.448;4.638;2023-07-13T14:47:57;23.30;99.90
17331;DHT22;8783;52.448;4.638;2023-07-13T14:50:31;23.30;99.90
17331;DHT22;8783;52.448;4.638;2023-07-13T14:52:58;23.30;99.90
17331;DHT22;8783;52.448;4.638;2023-07-13T14:55:23;23.30;99.90
17331;DHT22;8783;52.448;4.638;2023-07-13T14:57:52;23.30;99.90
17331;DHT22;8783;52.448;4.638;2023-07-13T15:00:20;23.40;99.90
17331;DHT22;8783;52.448;4.638;2023-07-13T15:02:56;23.30;99.90
17331;DHT22;8783;52.448;4.638;2023-07-13T15:05:30;23.40;99.90
17331;DHT22;8783;52.448;4.638;2023-07-13T15:07:59;23.30;99.90
17331;DHT22;8783;52.448;4.638;2023-07-13T15:10:30;23.30;99.90
17331;DHT22;8783;52.448;4.638;2023-07-13T15:13:12;23.40;99.90
17331;DHT22;8783;52.448;4.638;2023-07-13T15:15:39;22.90;99.90
17331;DHT22;8783;52.448;4.638;2023-07-13T15:18:07;22.90;99.90
17331;DHT22;8783;52.448;4.638;2023-07-13T15:20:34;22.90;99.90
17331;DHT22;8783;52.448;4.638;2023-07-13T15:23:01;22.90;99.90
17331;DHT22;8783;52.448;4.638;2023-07-13T15:25:29;23.00;99.90
17331;DHT22;8783;52.448;4.638;2023-07-13T15:27:56;23.00;99.90
17331;DHT22;8783;52.448;4.638;2023-07-13T15:30:25;23.10;99.90
17331;DHT22;8783;52.448;4.638;2023-07-13T15:32:52;23.10;99.90
17331;DHT22;8783;52.448;4.638;2023-07-13T15:35:20;23.10;99.90
17331;DHT22;8783;52.448;4.638;2023-07-13T15:37:48;23.10;99.90
17331;DHT22;8783;52.448;4.638;2023-07-13T15:40:15;23.10;99.90
17331;DHT22;8783;52.448;4.638;2023-07-13T15:42:42;23.20;99.90
17331;DHT22;8783;52.448;4.638;2023-07-13T15:45:17;23.20;99.90
17331;DHT22;8783;52.448;4.638;2023-07-13T15:47:44;23.20;99.90
17331;DHT22;8783;52.448;4.638;2023-07-13T15:50:19;23.20;99.90
17331;DHT22;8783;52.448;4.638;2023-07-13T15:52:49;23.30;99.90
17331;DHT22;8783;52.448;4.638;2023-07-13T15:55:15;23.30;99.90
17331;DHT22;8783;52.448;4.638;2023-07-13T15:57:47;23.40;99.90
17331;DHT22;8783;52.448;4.638;2023-07-13T16:00:26;23.40;99.90
17331;DHT22;8783;52.448;4.638;2023-07-13T16:02:53;23.50;99.90
17331;DHT22;8783;52.448;4.638;2023-07-13T16:05:20;23.50;99.90
17331;DHT22;8783;52.448;4.638;2023-07-13T16:07:50;23.60;99.90
17331;DHT22;8783;52.448;4.638;2023-07-13T16:10:22;23.60;99.90
17331;DHT22;8783;52.448;4.638;2023-07-13T16:12:50;23.60;99.90
17331;DHT22;8783;52.448;4.638;2023-07-13T16:15:18;23.60;99.90
17331;DHT22;8783;52.448;4.638;2023-07-13T16:17:45;23.60;99.90
17331;DHT22;8783;52.448;4.638;2023-07-13T16:20:12;23.60;99.90
17331;DHT22;8783;52.448;4.638;2023-07-13T16:22:46;23.60;99.90
17331;DHT22;8783;52.448;4.638;2023-07-13T16:25:14;23.60;99.90
17331;DHT22;8783;52.448;4.638;2023-07-13T16:27:40;23.60;99.90